Time;durP1;ratioP1;P1;durP2;ratioP2;P2;SDS_P1;SDS_P2;PMS_P1;PMS_P2;Temp;Humidity;BMP_temperature;BMP_pressure;BME280_temperature;BME280_humidity;BME280_pressure;Samples;Min_cycle;Max_cycle;Signal;HPM_P1;HPM_P2
2023/11/06 00:00:42;;;;;;;0.73;0.40;;;;;;;;;;5137182;27;20034;-74
2023/11/06 00:03:28;;;;;;;0.80;0.50;;;;;;;;;;5136853;27;20197;-74
2023/11/06 00:06:13;;;;;;;1.08;0.60;;;;;;;;;;5135740;27;20011;-73
2023/11/06 00:08:59;;;;;;;1.23;0.50;;;;;;;;;;5136171;27;20032;-73
2023/11/06 00:11:44;;;;;;;0.68;0.50;;;;;;;;;;5137402;27;20087;-74
2023/11/06 00:14:30;;;;;;;1.55;0.40;;;;;;;;;;5136731;27;20015;-74
2023/11/06 00:17:16;;;;;;;0.70;0.50;;;;;;;;;;5135629;27;20026;-74
2023/11/06 00:20:01;;;;;;;1.08;0.40;;;;;;;;;;5135874;27;20037;-74
2023/11/06 00:22:48;;;;;;;2.38;0.68;;;;;;;;;;5135812;27;20042;-72
2023/11/06 00:25:34;;;;;;;0.50;0.40;;;;;;;;;;5135426;27;20034;-74
2023/11/06 00:28:19;;;;;;;1.55;0.60;;;;;;;;;;5135859;27;20363;-73
2023/11/06 00:31:05;;;;;;;0.38;0.38;;;;;;;;;;5136116;27;20026;-74
2023/11/06 00:33:53;;;;;;;1.65;0.50;;;;;;;;;;5135935;27;20428;-73
2023/11/06 00:36:38;;;;;;;0.93;0.43;;;;;;;;;;5135756;27;20024;-73
2023/11/06 00:39:24;;;;;;;0.52;0.50;;;;;;;;;;5135513;27;20086;-73
2023/11/06 00:42:10;;;;;;;2.95;0.50;;;;;;;;;;5136245;27;20019;-74
2023/11/06 00:44:55;;;;;;;1.38;0.57;;;;;;;;;;5136138;27;20023;-74
2023/11/06 00:47:41;;;;;;;0.80;0.43;;;;;;;;;;5137540;27;20031;-74
2023/11/06 00:50:27;;;;;;;1.92;0.60;;;;;;;;;;5135122;27;20504;-74
2023/11/06 00:53:13;;;;;;;4.13;0.50;;;;;;;;;;5136031;27;20023;-74
2023/11/06 00:55:59;;;;;;;0.40;0.40;;;;;;;;;;5136434;27;20054;-72
2023/11/06 00:58:45;;;;;;;2.78;0.50;;;;;;;;;;5135655;27;20011;-73
2023/11/06 01:01:31;;;;;;;2.67;0.60;;;;;;;;;;5134900;27;20045;-74
2023/11/06 01:04:17;;;;;;;1.13;0.60;;;;;;;;;;5121718;27;20464;-73
2023/11/06 01:07:02;;;;;;;1.25;0.60;;;;;;;;;;5121290;27;20027;-74
2023/11/06 01:09:48;;;;;;;1.27;0.50;;;;;;;;;;5134750;27;20115;-74
2023/11/06 01:12:33;;;;;;;1.63;0.52;;;;;;;;;;5119548;28;20027;-73
2023/11/06 01:15:19;;;;;;;1.95;0.70;;;;;;;;;;5134810;27;20027;-74
2023/11/06 01:18:05;;;;;;;0.50;0.40;;;;;;;;;;5135763;27;20106;-73
2023/11/06 01:20:50;;;;;;;0.95;0.60;;;;;;;;;;5134922;27;20029;-74
2023/11/06 01:23:36;;;;;;;1.58;0.50;;;;;;;;;;5136181;28;20458;-74
2023/11/06 01:26:21;;;;;;;1.95;0.65;;;;;;;;;;5135382;28;20390;-74
2023/11/06 01:29:08;;;;;;;0.82;0.52;;;;;;;;;;5120041;28;20027;-74
2023/11/06 01:31:54;;;;;;;0.98;0.60;;;;;;;;;;5134619;28;20385;-73
2023/11/06 01:34:39;;;;;;;1.05;0.43;;;;;;;;;;5134670;28;20019;-73
2023/11/06 01:37:26;;;;;;;0.80;0.50;;;;;;;;;;5134640;28;20007;-74
2023/11/06 01:40:11;;;;;;;0.80;0.50;;;;;;;;;;5139728;28;20017;-73
2023/11/06 01:43:02;;;;;;;0.95;0.43;;;;;;;;;;5134283;28;20003;-73
2023/11/06 01:45:47;;;;;;;1.23;0.68;;;;;;;;;;5154644;28;20019;-74
2023/11/06 01:48:33;;;;;;;1.42;0.60;;;;;;;;;;5156367;28;20019;-75
2023/11/06 01:51:19;;;;;;;0.70;0.50;;;;;;;;;;5153278;27;20031;-72
2023/11/06 01:54:05;;;;;;;1.83;0.63;;;;;;;;;;5148316;27;20152;-74
2023/11/06 01:56:51;;;;;;;0.88;0.73;;;;;;;;;;5138909;27;20423;-75
2023/11/06 01:59:36;;;;;;;2.08;0.80;;;;;;;;;;5139179;27;20027;-74
2023/11/06 02:02:27;;;;;;;0.98;0.50;;;;;;;;;;5139059;27;20072;-74
2023/11/06 02:05:12;;;;;;;0.63;0.50;;;;;;;;;;5138500;27;20359;-75
2023/11/06 02:07:58;;;;;;;1.27;0.77;;;;;;;;;;5123515;27;20031;-73
2023/11/06 02:10:44;;;;;;;2.25;0.60;;;;;;;;;;5138222;27;20019;-74
2023/11/06 02:13:30;;;;;;;1.77;0.70;;;;;;;;;;5138671;27;20022;-75
2023/11/06 02:16:15;;;;;;;0.93;0.70;;;;;;;;;;5139029;27;20034;-73
2023/11/06 02:19:02;;;;;;;1.38;0.73;;;;;;;;;;5139063;27;20107;-74
2023/11/06 02:21:52;;;;;;;0.88;0.70;;;;;;;;;;5138510;27;20464;-73
2023/11/06 02:24:40;;;;;;;1.60;0.70;;;;;;;;;;5138207;27;20019;-73
2023/11/06 02:27:26;;;;;;;1.45;0.63;;;;;;;;;;5137769;27;20015;-74
2023/11/06 02:30:11;;;;;;;1.05;0.50;;;;;;;;;;5137684;27;20072;-74
2023/11/06 02:32:57;;;;;;;0.70;0.47;;;;;;;;;;5138109;27;20019;-73
2023/11/06 02:35:43;;;;;;;1.67;0.52;;;;;;;;;;5138761;27;20046;-74
2023/11/06 02:38:28;;;;;;;1.17;0.47;;;;;;;;;;5138229;27;20060;-73
2023/11/06 02:41:14;;;;;;;0.35;0.35;;;;;;;;;;5138391;27;20355;-73
2023/11/06 02:43:59;;;;;;;0.93;0.50;;;;;;;;;;5137356;27;20073;-75
2023/11/06 02:46:46;;;;;;;2.45;0.50;;;;;;;;;;5138026;27;20019;-75
2023/11/06 02:49:32;;;;;;;3.17;0.65;;;;;;;;;;5138127;27;20042;-74
2023/11/06 02:52:18;;;;;;;0.63;0.50;;;;;;;;;;5138250;27;20487;-74
2023/11/06 02:55:04;;;;;;;1.58;0.73;;;;;;;;;;5137534;27;20141;-74
2023/11/06 02:57:49;;;;;;;1.35;0.50;;;;;;;;;;5122995;27;20030;-74
2023/11/06 03:00:35;;;;;;;0.70;0.50;;;;;;;;;;5137661;27;20098;-74
2023/11/06 03:03:21;;;;;;;1.30;0.65;;;;;;;;;;5122421;27;20023;-74
2023/11/06 03:06:09;;;;;;;0.50;0.50;;;;;;;;;;5138529;27;20359;-74
2023/11/06 03:08:54;;;;;;;0.80;0.50;;;;;;;;;;5137416;27;20019;-74
2023/11/06 03:11:40;;;;;;;0.80;0.50;;;;;;;;;;5137053;27;20393;-72
2023/11/06 03:14:25;;;;;;;5.07;0.60;;;;;;;;;;5122853;27;20023;-74
2023/11/06 03:17:11;;;;;;;1.00;0.80;;;;;;;;;;5136398;27;20019;-74
2023/11/06 03:19:57;;;;;;;0.88;0.50;;;;;;;;;;5115055;27;20023;-74
2023/11/06 03:22:42;;;;;;;1.30;0.50;;;;;;;;;;5136169;27;20080;-74
2023/11/06 03:25:28;;;;;;;1.25;0.90;;;;;;;;;;5137553;27;20438;-74
2023/11/06 03:28:13;;;;;;;1.63;0.70;;;;;;;;;;5122418;27;20031;-75
2023/11/06 03:30:59;;;;;;;1.48;0.60;;;;;;;;;;5136443;27;20019;-73
2023/11/06 03:33:45;;;;;;;2.45;0.82;;;;;;;;;;5137517;27;20021;-74
2023/11/06 03:36:30;;;;;;;1.25;0.70;;;;;;;;;;5137225;27;20105;-73
2023/11/06 03:39:16;;;;;;;0.93;0.60;;;;;;;;;;5122999;27;20018;-74
2023/11/06 03:42:02;;;;;;;2.00;1.40;;;;;;;;;;5137305;27;20053;-73
2023/11/06 03:44:47;;;;;;;1.77;1.05;;;;;;;;;;5122581;27;20019;-74
2023/11/06 03:47:33;;;;;;;0.90;0.63;;;;;;;;;;5122168;27;20470;-73
2023/11/06 03:50:19;;;;;;;0.70;0.60;;;;;;;;;;5137109;27;20466;-74
2023/11/06 03:53:05;;;;;;;1.02;0.60;;;;;;;;;;5122114;27;20019;-73
2023/11/06 03:55:50;;;;;;;1.42;0.65;;;;;;;;;;5137780;27;20110;-73
2023/11/06 03:58:36;;;;;;;0.70;0.60;;;;;;;;;;5122458;27;20029;-73
2023/11/06 04:01:22;;;;;;;2.08;0.60;;;;;;;;;;5136543;27;20031;-74
2023/11/06 04:04:07;;;;;;;1.15;0.60;;;;;;;;;;5137063;27;20534;-74
2023/11/06 04:06:53;;;;;;;1.05;0.65;;;;;;;;;;5136886;27;20458;-73
2023/11/06 04:09:39;;;;;;;0.60;0.60;;;;;;;;;;5122272;27;20023;-73
2023/11/06 04:12:24;;;;;;;0.88;0.70;;;;;;;;;;5137111;27;20016;-73
2023/11/06 04:15:10;;;;;;;2.42;0.98;;;;;;;;;;5122037;27;20106;-74
2023/11/06 04:17:56;;;;;;;1.17;0.70;;;;;;;;;;5121568;27;20025;-73
2023/11/06 04:20:42;;;;;;;2.20;1.02;;;;;;;;;;5122358;27;20038;-74
2023/11/06 04:23:28;;;;;;;0.93;0.70;;;;;;;;;;5135597;27;20034;-74
2023/11/06 04:26:13;;;;;;;1.77;0.70;;;;;;;;;;5136571;27;20031;-74
2023/11/06 04:28:59;;;;;;;2.25;0.98;;;;;;;;;;5136498;27;20019;-75
2023/11/06 04:31:45;;;;;;;1.25;0.80;;;;;;;;;;5135751;27;20027;-73
2023/11/06 04:34:30;;;;;;;1.60;0.82;;;;;;;;;;5136342;27;20037;-74
2023/11/06 04:37:16;;;;;;;4.25;1.20;;;;;;;;;;5135459;27;20018;-74
2023/11/06 04:40:02;;;;;;;2.90;1.40;;;;;;;;;;5136576;27;20343;-74
2023/11/06 04:42:49;;;;;;;3.67;1.40;;;;;;;;;;5135468;27;20019;-74
2023/11/06 04:45:34;;;;;;;1.38;1.08;;;;;;;;;;5121542;27;20344;-74
2023/11/06 04:48:20;;;;;;;1.88;1.15;;;;;;;;;;5120551;27;20026;-73
2023/11/06 04:51:06;;;;;;;2.55;1.10;;;;;;;;;;5135678;27;20362;-74
2023/11/06 04:53:51;;;;;;;3.28;1.30;;;;;;;;;;5134974;27;20054;-75
2023/11/06 04:56:41;;;;;;;1.42;1.00;;;;;;;;;;5135865;27;20393;-74
2023/11/06 04:59:27;;;;;;;1.35;0.88;;;;;;;;;;5135792;27;20030;-73
2023/11/06 05:02:12;;;;;;;1.65;1.13;;;;;;;;;;5120089;27;20023;-74
2023/11/06 05:04:58;;;;;;;2.55;1.10;;;;;;;;;;5119658;27;20019;-73
2023/11/06 05:07:43;;;;;;;2.17;1.08;;;;;;;;;;5135724;27;20359;-73
2023/11/06 05:10:29;;;;;;;8.05;1.65;;;;;;;;;;5135426;27;20019;-73
2023/11/06 05:13:15;;;;;;;5.05;1.40;;;;;;;;;;5136432;27;20023;-73
2023/11/06 05:16:00;;;;;;;3.85;1.10;;;;;;;;;;5136027;27;20031;-74
2023/11/06 05:18:46;;;;;;;2.60;1.15;;;;;;;;;;5135823;27;20084;-73
2023/11/06 05:21:32;;;;;;;2.78;1.85;;;;;;;;;;5119369;28;20019;-73
2023/11/06 05:24:17;;;;;;;5.57;2.20;;;;;;;;;;5135639;28;20023;-73
2023/11/06 05:27:03;;;;;;;2.45;1.50;;;;;;;;;;5133825;27;20416;-74
2023/11/06 05:29:48;;;;;;;11.10;2.15;;;;;;;;;;5135867;28;20023;-74
2023/11/06 05:32:34;;;;;;;4.13;1.83;;;;;;;;;;5135736;28;20026;-74
2023/11/06 05:35:19;;;;;;;7.68;2.10;;;;;;;;;;5135918;28;20015;-73
2023/11/06 05:38:05;;;;;;;6.00;1.50;;;;;;;;;;5135117;28;20347;-73
2023/11/06 05:40:51;;;;;;;3.08;1.45;;;;;;;;;;5135726;28;20087;-76
2023/11/06 05:43:37;;;;;;;2.50;1.33;;;;;;;;;;5135430;28;20100;-74
2023/11/06 05:46:22;;;;;;;3.20;1.30;;;;;;;;;;5134730;28;20057;-74
2023/11/06 05:49:08;;;;;;;3.47;1.42;;;;;;;;;;5121104;28;20065;-74
2023/11/06 05:51:54;;;;;;;2.33;1.52;;;;;;;;;;5119739;28;20038;-75
2023/11/06 05:54:40;;;;;;;2.92;1.30;;;;;;;;;;5135873;28;20054;-74
2023/11/06 05:57:26;;;;;;;6.38;1.77;;;;;;;;;;5135226;28;20026;-74
2023/11/06 06:00:12;;;;;;;9.38;1.60;;;;;;;;;;5135551;28;20044;-74
2023/11/06 06:03:01;;;;;;;10.73;2.42;;;;;;;;;;5127111;28;20520;-73
2023/11/06 06:05:47;;;;;;;4.85;2.20;;;;;;;;;;5135275;28;20105;-75
2023/11/06 06:08:32;;;;;;;5.72;2.50;;;;;;;;;;5120983;28;20023;-72
2023/11/06 06:11:18;;;;;;;3.30;1.60;;;;;;;;;;5135568;28;20023;-73
2023/11/06 06:14:04;;;;;;;4.72;1.95;;;;;;;;;;5122343;28;20094;-74
2023/11/06 06:16:50;;;;;;;4.55;2.53;;;;;;;;;;5136946;28;20011;-73
2023/11/06 06:19:35;;;;;;;5.63;1.90;;;;;;;;;;5136352;28;20388;-74
2023/11/06 06:22:21;;;;;;;3.53;2.00;;;;;;;;;;5136007;28;20332;-75
2023/11/06 06:25:08;;;;;;;5.95;2.20;;;;;;;;;;5134989;28;20027;-73
2023/11/06 06:27:53;;;;;;;5.72;2.33;;;;;;;;;;5135021;28;20095;-74
2023/11/06 06:30:39;;;;;;;2.97;1.88;;;;;;;;;;5135105;28;20422;-74
2023/11/06 06:33:24;;;;;;;5.40;2.25;;;;;;;;;;5134681;28;20019;-74
2023/11/06 06:36:11;;;;;;;3.28;1.75;;;;;;;;;;5134917;28;20433;-73
2023/11/06 06:38:57;;;;;;;3.53;1.63;;;;;;;;;;5137367;27;20035;-74
2023/11/06 06:41:43;;;;;;;2.67;1.70;;;;;;;;;;5137455;27;20050;-74
2023/11/06 06:44:28;;;;;;;3.47;1.92;;;;;;;;;;5137765;27;20026;-73
2023/11/06 06:47:14;;;;;;;6.00;2.17;;;;;;;;;;5122948;27;20019;-73
2023/11/06 06:49:59;;;;;;;3.20;1.38;;;;;;;;;;5137057;27;20026;-74
2023/11/06 06:52:45;;;;;;;3.85;1.58;;;;;;;;;;5137932;27;20351;-74
2023/11/06 06:55:31;;;;;;;2.83;1.55;;;;;;;;;;5137946;27;20043;-73
2023/11/06 06:58:16;;;;;;;5.47;1.55;;;;;;;;;;5137451;27;20360;-73
2023/11/06 07:01:03;;;;;;;2.08;1.48;;;;;;;;;;5138397;27;20362;-73
2023/11/06 07:03:48;;;;;;;6.22;2.08;;;;;;;;;;5137782;27;20023;-73
2023/11/06 07:06:34;;;;;;;3.38;1.67;;;;;;;;;;5138676;27;20043;-73
2023/11/06 07:09:20;;;;;;;4.63;1.98;;;;;;;;;;5137615;27;20015;-74
2023/11/06 07:12:05;;;;;;;9.80;2.13;;;;;;;;;;5122915;27;20019;-73
2023/11/06 07:14:51;;;;;;;3.35;2.13;;;;;;;;;;5123460;27;20050;-74
2023/11/06 07:17:37;;;;;;;7.32;1.83;;;;;;;;;;5122934;27;20008;-73
2023/11/06 07:20:23;;;;;;;3.25;1.65;;;;;;;;;;5137999;27;20023;-74
2023/11/06 07:23:09;;;;;;;4.95;1.70;;;;;;;;;;5137662;27;20031;-74
2023/11/06 07:25:55;;;;;;;6.60;2.03;;;;;;;;;;5140175;27;20355;-73
2023/11/06 07:28:40;;;;;;;2.45;1.50;;;;;;;;;;5138031;27;20015;-73
2023/11/06 07:31:26;;;;;;;6.05;1.90;;;;;;;;;;5121402;27;20034;-74
2023/11/06 07:34:12;;;;;;;2.70;1.80;;;;;;;;;;5137291;27;20094;-75
2023/11/06 07:36:57;;;;;;;4.07;2.20;;;;;;;;;;5122357;27;20115;-73
2023/11/06 07:39:43;;;;;;;4.40;1.88;;;;;;;;;;5137763;27;20030;-73
2023/11/06 07:42:28;;;;;;;4.47;1.85;;;;;;;;;;5121699;27;20023;-73
2023/11/06 07:45:14;;;;;;;3.60;1.73;;;;;;;;;;5138397;27;20420;-73
2023/11/06 07:48:02;;;;;;;3.55;1.67;;;;;;;;;;5136347;27;20438;-73
2023/11/06 07:50:47;;;;;;;5.38;2.28;;;;;;;;;;5122095;27;20084;-73
2023/11/06 07:53:33;;;;;;;5.32;1.52;;;;;;;;;;5122158;27;20108;-74
2023/11/06 07:56:19;;;;;;;3.92;2.08;;;;;;;;;;5136817;27;20007;-74
2023/11/06 07:59:04;;;;;;;3.72;1.80;;;;;;;;;;5137476;27;20030;-74
2023/11/06 08:01:50;;;;;;;5.82;2.92;;;;;;;;;;5136961;27;20138;-74
2023/11/06 08:04:36;;;;;;;4.82;1.80;;;;;;;;;;5136176;27;20018;-74
2023/11/06 08:07:22;;;;;;;4.00;1.50;;;;;;;;;;5136127;27;20414;-73
2023/11/06 08:10:09;;;;;;;4.45;1.10;;;;;;;;;;5121330;27;20023;-74
2023/11/06 08:12:54;;;;;;;5.20;1.63;;;;;;;;;;5114008;27;20051;-74
2023/11/06 08:15:40;;;;;;;6.18;1.52;;;;;;;;;;5137225;27;20027;-73
2023/11/06 08:18:26;;;;;;;6.05;1.60;;;;;;;;;;5122031;27;20026;-74
2023/11/06 08:21:11;;;;;;;2.40;1.38;;;;;;;;;;5136035;27;20419;-73
2023/11/06 08:23:57;;;;;;;4.00;1.85;;;;;;;;;;5137163;27;20332;-74
2023/11/06 08:26:46;;;;;;;3.30;1.55;;;;;;;;;;5121423;27;20106;-74
2023/11/06 08:29:32;;;;;;;6.00;2.00;;;;;;;;;;5136114;27;20030;-74
2023/11/06 08:32:18;;;;;;;3.83;2.10;;;;;;;;;;5121742;27;20027;-72
2023/11/06 08:35:04;;;;;;;3.67;2.10;;;;;;;;;;5136445;27;20019;-73
2023/11/06 08:37:51;;;;;;;3.15;1.80;;;;;;;;;;5121948;27;20024;-75
2023/11/06 08:40:37;;;;;;;7.90;1.80;;;;;;;;;;5135441;27;20019;-73
2023/11/06 08:43:22;;;;;;;4.32;1.70;;;;;;;;;;5121203;27;20031;-73
2023/11/06 08:46:08;;;;;;;4.07;1.50;;;;;;;;;;5136656;27;20037;-76
2023/11/06 08:48:54;;;;;;;3.28;1.92;;;;;;;;;;5135851;27;20332;-75
2023/11/06 08:51:39;;;;;;;4.55;2.25;;;;;;;;;;5120354;27;20019;-71
2023/11/06 08:54:25;;;;;;;6.53;2.30;;;;;;;;;;5120615;27;20379;-74
2023/11/06 08:57:14;;;;;;;3.17;1.50;;;;;;;;;;5120962;27;20015;-74
2023/11/06 09:00:01;;;;;;;5.70;1.80;;;;;;;;;;5134959;27;20019;-75
2023/11/06 09:02:47;;;;;;;5.30;1.65;;;;;;;;;;5119515;27;20019;-74
2023/11/06 09:05:32;;;;;;;5.63;1.70;;;;;;;;;;5135696;27;20027;-74
2023/11/06 09:08:18;;;;;;;5.05;1.60;;;;;;;;;;5134923;27;20110;-73
2023/11/06 09:11:05;;;;;;;6.30;1.67;;;;;;;;;;5135204;27;20465;-74
2023/11/06 09:13:51;;;;;;;5.65;1.73;;;;;;;;;;5135601;27;20518;-73
2023/11/06 09:16:37;;;;;;;3.85;1.40;;;;;;;;;;5120322;27;20019;-74
2023/11/06 09:19:23;;;;;;;4.15;1.95;;;;;;;;;;5120646;28;20110;-74
2023/11/06 09:22:08;;;;;;;10.60;2.22;;;;;;;;;;5120236;28;20107;-75
2023/11/06 09:24:54;;;;;;;4.78;1.70;;;;;;;;;;5135472;28;20063;-74
2023/11/06 09:27:46;;;;;;;7.28;1.70;;;;;;;;;;5120754;28;20090;-74
2023/11/06 09:30:31;;;;;;;4.85;2.10;;;;;;;;;;5119706;28;20026;-75
2023/11/06 09:33:17;;;;;;;8.10;1.42;;;;;;;;;;5119623;28;20045;-74
2023/11/06 09:36:03;;;;;;;4.72;1.73;;;;;;;;;;5135003;28;20011;-74
2023/11/06 09:38:49;;;;;;;5.07;1.60;;;;;;;;;;5111902;28;20019;-74
2023/11/06 09:41:34;;;;;;;9.00;1.80;;;;;;;;;;5119855;28;20033;-74
2023/11/06 09:44:21;;;;;;;3.53;1.38;;;;;;;;;;5120039;28;20080;-74
2023/11/06 09:47:07;;;;;;;4.10;1.50;;;;;;;;;;5119146;28;20182;-75
2023/11/06 09:50:04;;;;;;;5.70;2.00;;;;;;;;;;5111538;28;20054;-75
2023/11/06 09:52:53;;;;;;;6.28;2.28;;;;;;;;;;5133934;28;20034;-75
2023/11/06 09:55:39;;;;;;;9.63;2.10;;;;;;;;;;5133669;28;20046;-75
2023/11/06 09:58:25;;;;;;;3.92;1.50;;;;;;;;;;5134017;28;20019;-75
2023/11/06 10:01:14;;;;;;;6.82;1.42;;;;;;;;;;5118470;28;20027;-74
2023/11/06 10:04:00;;;;;;;6.32;1.67;;;;;;;;;;5134125;28;20043;-75
2023/11/06 10:06:48;;;;;;;7.18;1.38;;;;;;;;;;5134055;28;20411;-74
2023/11/06 10:09:34;;;;;;;6.43;1.70;;;;;;;;;;5133561;28;20499;-75
2023/11/06 10:12:20;;;;;;;3.40;1.38;;;;;;;;;;5118954;27;20054;-75
2023/11/06 10:15:06;;;;;;;3.78;1.50;;;;;;;;;;5137703;27;20016;-75
2023/11/06 10:17:52;;;;;;;2.78;1.17;;;;;;;;;;5122850;27;20019;-74
2023/11/06 10:20:44;;;;;;;3.85;1.50;;;;;;;;;;5137188;27;20027;-76
2023/11/06 10:23:32;;;;;;;4.00;1.30;;;;;;;;;;5122220;27;20019;-75
2023/11/06 10:26:18;;;;;;;4.60;1.20;;;;;;;;;;5137217;27;20023;-75
2023/11/06 10:29:08;;;;;;;4.72;1.73;;;;;;;;;;5137690;27;20134;-75
2023/11/06 10:31:54;;;;;;;4.88;1.40;;;;;;;;;;5122393;27;20031;-75
2023/11/06 10:34:40;;;;;;;5.35;1.38;;;;;;;;;;5122368;27;20111;-75
2023/11/06 10:37:27;;;;;;;3.33;1.80;;;;;;;;;;5122220;27;20019;-75
2023/11/06 10:40:13;;;;;;;9.35;2.58;;;;;;;;;;5122064;27;20023;-73
2023/11/06 10:43:00;;;;;;;7.28;1.52;;;;;;;;;;5123564;27;20023;-74
2023/11/06 10:45:46;;;;;;;7.47;1.75;;;;;;;;;;5137214;27;20168;-75
2023/11/06 10:48:36;;;;;;;3.60;1.23;;;;;;;;;;5122030;27;20043;-75
2023/11/06 10:51:22;;;;;;;7.97;1.35;;;;;;;;;;5136803;27;20019;-75
2023/11/06 10:54:08;;;;;;;7.55;1.40;;;;;;;;;;5121287;27;20044;-74
2023/11/06 10:56:57;;;;;;;4.63;1.40;;;;;;;;;;5137138;27;20023;-76
2023/11/06 10:59:43;;;;;;;9.60;1.80;;;;;;;;;;5122539;27;20110;-76
2023/11/06 11:02:35;;;;;;;6.10;1.30;;;;;;;;;;5121928;27;20023;-74
2023/11/06 11:05:24;;;;;;;6.32;1.60;;;;;;;;;;5122775;27;20038;-75
2023/11/06 11:08:09;;;;;;;2.88;1.40;;;;;;;;;;5122294;27;20102;-75
2023/11/06 11:10:56;;;;;;;3.13;1.30;;;;;;;;;;5121515;27;20395;-74
2023/11/06 11:13:42;;;;;;;7.60;1.27;;;;;;;;;;5121448;27;20046;-76
2023/11/06 11:16:38;;;;;;;6.30;1.58;;;;;;;;;;5121380;27;20015;-74
2023/11/06 11:19:27;;;;;;;6.25;1.67;;;;;;;;;;5136532;27;20027;-76
2023/11/06 11:22:15;;;;;;;4.00;1.50;;;;;;;;;;5136224;27;20011;-75
2023/11/06 11:25:02;;;;;;;6.20;1.60;;;;;;;;;;5134848;27;20440;-75
2023/11/06 11:28:08;;;;;;;4.40;1.90;;;;;;;;;;5136249;27;20015;-74
2023/11/06 11:30:53;;;;;;;6.32;1.60;;;;;;;;;;5135975;27;20404;-74
2023/11/06 11:33:55;;;;;;;3.05;1.10;;;;;;;;;;5135592;27;20023;-75
2023/11/06 11:36:40;;;;;;;8.27;1.38;;;;;;;;;;5121153;27;20023;-75
2023/11/06 11:39:29;;;;;;;6.05;1.40;;;;;;;;;;5135558;27;20030;-76
2023/11/06 11:42:14;;;;;;;6.13;1.50;;;;;;;;;;5120951;27;20114;-75
2023/11/06 11:45:07;;;;;;;6.38;1.30;;;;;;;;;;5135922;27;20019;-75
2023/11/06 11:47:55;;;;;;;4.40;1.35;;;;;;;;;;5122271;27;20435;-77
2023/11/06 11:50:41;;;;;;;4.63;1.13;;;;;;;;;;5135993;27;20450;-74
2023/11/06 11:53:34;;;;;;;4.88;1.30;;;;;;;;;;5136349;27;20125;-74
2023/11/06 11:56:40;;;;;;;5.75;1.67;;;;;;;;;;5136739;27;20424;-75
2023/11/06 11:59:26;;;;;;;10.73;1.38;;;;;;;;;;5132797;27;20054;-75
2023/11/06 12:02:27;;;;;;;4.05;1.70;;;;;;;;;;5135306;27;20102;-75
2023/11/06 12:05:16;;;;;;;6.50;1.42;;;;;;;;;;5136197;27;20128;-75
2023/11/06 12:08:17;;;;;;;5.60;1.20;;;;;;;;;;5135463;27;20015;-76
2023/11/06 12:11:09;;;;;;;3.28;1.17;;;;;;;;;;5135543;27;20026;-75
2023/11/06 12:13:54;;;;;;;5.55;1.60;;;;;;;;;;5135334;27;20019;-74
2023/11/06 12:16:47;;;;;;;4.63;1.30;;;;;;;;;;5135580;27;20024;-75
2023/11/06 12:19:39;;;;;;;4.05;1.35;;;;;;;;;;5135440;27;20031;-74
2023/11/06 12:22:24;;;;;;;5.80;1.10;;;;;;;;;;5135704;27;20023;-74
2023/11/06 12:25:10;;;;;;;5.63;1.40;;;;;;;;;;5136668;27;20023;-77
2023/11/06 12:28:01;;;;;;;4.00;1.20;;;;;;;;;;5136209;27;20019;-75
2023/11/06 12:30:52;;;;;;;4.50;1.25;;;;;;;;;;5120030;27;20031;-74
2023/11/06 12:33:38;;;;;;;4.38;1.27;;;;;;;;;;5135092;27;20047;-74
2023/11/06 12:36:24;;;;;;;5.30;1.70;;;;;;;;;;5121135;27;20397;-74
2023/11/06 12:39:29;;;;;;;5.38;1.20;;;;;;;;;;5135989;27;20019;-75
2023/11/06 12:42:17;;;;;;;3.97;1.08;;;;;;;;;;5121229;27;20012;-75
2023/11/06 12:45:09;;;;;;;8.57;1.80;;;;;;;;;;5134858;27;20289;-76
2023/11/06 12:47:54;;;;;;;7.07;1.58;;;;;;;;;;5135306;27;20439;-75
2023/11/06 12:50:40;;;;;;;4.70;1.42;;;;;;;;;;5120401;27;20019;-75
2023/11/06 12:53:26;;;;;;;4.60;1.30;;;;;;;;;;5135227;27;20029;-75
2023/11/06 12:56:12;;;;;;;3.63;1.23;;;;;;;;;;5119837;27;20507;-75
2023/11/06 12:58:58;;;;;;;4.35;1.40;;;;;;;;;;5134752;27;20094;-76
2023/11/06 13:01:44;;;;;;;3.17;1.40;;;;;;;;;;5135857;27;20038;-78
2023/11/06 13:04:30;;;;;;;3.70;1.30;;;;;;;;;;5119061;27;20019;-76
2023/11/06 13:07:15;;;;;;;5.50;1.33;;;;;;;;;;5135612;27;20030;-75
2023/11/06 13:10:05;;;;;;;4.00;1.48;;;;;;;;;;5135983;27;20446;-73
2023/11/06 13:12:51;;;;;;;8.30;1.45;;;;;;;;;;5135796;27;20049;-74
2023/11/06 13:15:36;;;;;;;5.50;1.30;;;;;;;;;;5135688;27;20034;-74
2023/11/06 13:18:22;;;;;;;10.27;1.80;;;;;;;;;;5118305;27;20102;-75
2023/11/06 13:23:56;;;;;;;5.22;1.45;;;;;;;;;;5135042;27;20047;-75
2023/11/06 13:26:42;;;;;;;3.80;1.30;;;;;;;;;;5135491;27;20038;-73
2023/11/06 13:29:27;;;;;;;6.57;1.35;;;;;;;;;;5135651;28;20466;-73
2023/11/06 13:32:13;;;;;;;3.40;1.42;;;;;;;;;;5135526;28;20331;-71
2023/11/06 13:34:59;;;;;;;4.20;1.48;;;;;;;;;;5134957;28;20330;-72
2023/11/06 13:37:46;;;;;;;5.32;1.58;;;;;;;;;;5134606;28;20043;-72
2023/11/06 13:40:32;;;;;;;7.55;1.75;;;;;;;;;;5135373;28;20360;-73
2023/11/06 13:43:21;;;;;;;10.77;1.98;;;;;;;;;;5135255;28;20080;-71
2023/11/06 13:46:07;;;;;;;6.13;1.45;;;;;;;;;;5134949;28;20027;-71
2023/11/06 13:48:53;;;;;;;7.72;1.75;;;;;;;;;;5138201;27;20038;-72
2023/11/06 13:51:42;;;;;;;2.92;1.10;;;;;;;;;;5139335;27;20023;-72
2023/11/06 13:54:34;;;;;;;4.05;1.50;;;;;;;;;;5138983;27;20134;-73
2023/11/06 13:57:23;;;;;;;14.32;4.32;;;;;;;;;;5139528;27;20026;-73
2023/11/06 14:00:32;;;;;;;57.05;10.48;;;;;;;;;;5138216;27;20027;-73
2023/11/06 14:03:19;;;;;;;9.07;2.42;;;;;;;;;;5135609;27;20030;-73
2023/11/06 14:06:16;;;;;;;3.08;1.38;;;;;;;;;;5138200;27;20138;-71
2023/11/06 14:09:05;;;;;;;10.88;2.13;;;;;;;;;;5133039;27;20030;-72
2023/11/06 14:11:51;;;;;;;38.83;7.93;;;;;;;;;;5137473;27;20427;-73
2023/11/06 14:14:40;;;;;;;80.38;13.38;;;;;;;;;;5137951;27;20030;-72
2023/11/06 14:17:27;;;;;;;53.20;7.47;;;;;;;;;;5137443;27;20030;-72
2023/11/06 14:20:15;;;;;;;16.55;3.30;;;;;;;;;;5137044;27;20019;-71
2023/11/06 14:23:01;;;;;;;14.60;2.50;;;;;;;;;;5137398;27;20105;-73
2023/11/06 14:25:48;;;;;;;40.15;4.50;;;;;;;;;;5137574;27;20450;-72
2023/11/06 14:28:34;;;;;;;7.80;2.90;;;;;;;;;;5137739;27;20029;-71
2023/11/06 14:31:20;;;;;;;6.40;2.10;;;;;;;;;;5138155;27;20095;-71
2023/11/06 14:34:06;;;;;;;4.15;1.38;;;;;;;;;;5138860;27;20046;-68
2023/11/06 14:36:51;;;;;;;7.72;1.67;;;;;;;;;;5124033;27;20021;-70
2023/11/06 14:39:39;;;;;;;8.98;1.80;;;;;;;;;;5123741;27;20016;-72
2023/11/06 14:42:25;;;;;;;9.93;2.17;;;;;;;;;;5138219;27;20068;-74
2023/11/06 14:45:12;;;;;;;6.75;1.70;;;;;;;;;;5138289;27;20015;-71
2023/11/06 14:47:58;;;;;;;10.18;2.08;;;;;;;;;;5138179;27;20355;-69
2023/11/06 14:50:45;;;;;;;10.05;1.75;;;;;;;;;;5137922;27;20086;-70
2023/11/06 14:53:31;;;;;;;5.53;1.40;;;;;;;;;;5138036;27;20043;-71
2023/11/06 14:56:16;;;;;;;7.38;1.83;;;;;;;;;;5137834;27;20019;-70
2023/11/06 14:59:02;;;;;;;5.47;1.73;;;;;;;;;;5122381;27;20030;-72
2023/11/06 15:01:48;;;;;;;11.48;1.85;;;;;;;;;;5138706;27;20076;-71
2023/11/06 15:04:35;;;;;;;7.25;2.20;;;;;;;;;;5137548;27;20023;-70
2023/11/06 15:07:21;;;;;;;14.20;2.20;;;;;;;;;;5124064;27;20027;-71
2023/11/06 15:10:09;;;;;;;7.40;1.77;;;;;;;;;;5137722;27;20519;-71
2023/11/06 15:12:55;;;;;;;7.32;1.88;;;;;;;;;;5137588;27;20038;-70
2023/11/06 15:15:41;;;;;;;20.63;3.10;;;;;;;;;;5137175;27;20034;-70
2023/11/06 15:18:27;;;;;;;9.68;2.03;;;;;;;;;;5137749;27;20026;-70
2023/11/06 15:21:13;;;;;;;6.30;1.90;;;;;;;;;;5114657;27;20027;-71
2023/11/06 15:23:58;;;;;;;10.32;2.30;;;;;;;;;;5101506;28;20108;-69
2023/11/06 15:26:44;;;;;;;14.45;2.80;;;;;;;;;;5115980;28;20023;-71
2023/11/06 15:29:30;;;;;;;19.50;4.22;;;;;;;;;;5115705;28;20024;-70
2023/11/06 15:32:16;;;;;;;19.67;4.13;;;;;;;;;;5115268;28;20012;-70
2023/11/06 15:35:03;;;;;;;17.30;3.50;;;;;;;;;;5115662;28;20019;-71
2023/11/06 15:37:48;;;;;;;15.60;3.72;;;;;;;;;;5115399;28;20028;-71
2023/11/06 15:40:34;;;;;;;13.45;3.30;;;;;;;;;;5115922;28;20023;-71
2023/11/06 15:43:21;;;;;;;4.93;2.60;;;;;;;;;;5101601;28;20360;-70
2023/11/06 15:46:06;;;;;;;20.05;3.55;;;;;;;;;;5115338;28;20471;-71
2023/11/06 15:48:53;;;;;;;13.68;3.70;;;;;;;;;;5116472;28;20035;-71
2023/11/06 15:51:39;;;;;;;18.23;3.97;;;;;;;;;;5100928;28;20028;-71
2023/11/06 15:54:26;;;;;;;16.55;2.60;;;;;;;;;;5100988;28;20138;-71
2023/11/06 15:57:11;;;;;;;16.17;2.67;;;;;;;;;;5101964;28;20011;-69
2023/11/06 15:59:58;;;;;;;8.30;2.60;;;;;;;;;;5116005;28;20115;-70
2023/11/06 16:02:44;;;;;;;5.00;2.25;;;;;;;;;;5100809;28;20051;-70
2023/11/06 16:05:29;;;;;;;7.80;2.00;;;;;;;;;;5116099;28;20046;-71
2023/11/06 16:08:15;;;;;;;12.25;2.80;;;;;;;;;;5115278;28;20471;-70
2023/11/06 16:11:02;;;;;;;8.95;2.35;;;;;;;;;;5114272;28;20444;-70
2023/11/06 16:13:48;;;;;;;28.00;2.85;;;;;;;;;;5107473;28;20035;-71
2023/11/06 16:16:35;;;;;;;9.15;2.15;;;;;;;;;;5101021;28;20015;-69
2023/11/06 16:19:21;;;;;;;12.52;2.63;;;;;;;;;;5114740;28;20012;-70
2023/11/06 16:22:09;;;;;;;7.22;2.40;;;;;;;;;;5114961;28;20074;-70
2023/11/06 16:24:54;;;;;;;11.60;3.08;;;;;;;;;;5114847;28;20042;-70
2023/11/06 16:27:40;;;;;;;7.53;2.97;;;;;;;;;;5101293;28;20016;-70
2023/11/06 16:30:26;;;;;;;18.00;3.80;;;;;;;;;;5115470;28;20457;-70
2023/11/06 16:33:12;;;;;;;16.08;3.92;;;;;;;;;;5115363;28;20028;-71
2023/11/06 16:35:57;;;;;;;19.50;3.95;;;;;;;;;;5099887;28;20016;-71
2023/11/06 16:38:43;;;;;;;11.25;3.03;;;;;;;;;;5100435;28;20356;-71